Time;durP1;ratioP1;P1;durP2;ratioP2;P2;SDS_P1;SDS_P2;PMS_P1;PMS_P2;Temp;Humidity;BMP_temperature;BMP_pressure;BME280_temperature;BME280_humidity;BME280_pressure;Samples;Min_cycle;Max_cycle;Signal;HPM_P1;HPM_P2
2022/02/10 00:05:37;;;;;;;13.73;10.30;;;5.20;99.90;;;;;;5074452;28;20845;-55
2022/02/10 00:13:56;;;;;;;15.00;12.10;;;5.10;99.90;;;;;;5076672;28;20423;-56
2022/02/10 00:16:51;;;;;;;14.67;11.33;;;5.00;99.90;;;;;;5077502;28;20549;-56
2022/02/10 00:22:15;;;;;;;15.97;11.60;;;4.80;99.90;;;;;;5056531;28;20441;-56
2022/02/10 00:36:10;;;;;;;15.50;12.10;;;4.90;99.90;;;;;;5003348;28;20447;-58
2022/02/10 00:38:44;;;;;;;16.87;11.53;;;4.80;99.90;;;;;;5075459;28;20491;-56
2022/02/10 00:41:11;;;;;;;13.87;11.07;;;4.80;99.90;;;;;;5077200;28;20461;-58
2022/02/10 00:43:38;;;;;;;14.93;11.37;;;4.70;99.90;;;;;;5077257;28;20552;-55
2022/02/10 00:46:06;;;;;;;16.33;10.40;;;4.70;99.90;;;;;;5076194;28;20461;-55
2022/02/10 00:48:33;;;;;;;18.10;11.90;;;4.70;99.90;;;;;;5076577;28;20534;-56
2022/02/10 00:51:00;;;;;;;12.17;10.90;;;4.70;99.90;;;;;;5076565;28;20465;-54
2022/02/10 00:53:28;;;;;;;14.50;11.30;;;4.70;99.90;;;;;;5076949;28;20514;-57
2022/02/10 00:55:56;;;;;;;15.30;11.13;;;4.70;99.90;;;;;;5076195;28;20480;-54
2022/02/10 00:58:28;;;;;;;17.03;11.23;;;4.70;99.90;;;;;;5076827;28;20491;-56
2022/02/10 01:31:12;;;;;;;13.93;11.30;;;4.00;99.90;;;;;;5076110;28;20423;-55
2022/02/10 01:33:41;;;;;;;13.50;12.10;;;4.00;99.90;;;;;;5076954;28;20484;-56
2022/02/10 01:36:08;;;;;;;16.87;11.87;;;3.90;99.90;;;;;;5075825;28;20513;-55
2022/02/10 01:38:35;;;;;;;18.23;12.30;;;3.80;99.90;;;;;;5078729;28;20485;-53
2022/02/10 01:58:00;;;;;;;18.57;14.20;;;3.70;99.90;;;;;;5079782;28;20437;-54
2022/02/10 02:03:21;;;;;;;23.53;14.60;;;3.60;99.90;;;;;;5070355;28;20766;-55
2022/02/10 02:05:54;;;;;;;22.70;14.30;;;3.70;99.90;;;;;;5080153;28;20440;-58
2022/02/10 02:08:25;;;;;;;16.67;13.50;;;3.70;99.90;;;;;;5079185;28;20862;-58
2022/02/10 02:10:53;;;;;;;16.17;13.33;;;3.70;99.90;;;;;;5079465;28;20808;-57
2022/02/10 02:13:21;;;;;;;14.30;12.80;;;3.60;99.90;;;;;;5079411;28;20946;-58
2022/02/10 02:15:50;;;;;;;16.77;13.63;;;3.50;99.90;;;;;;5079593;28;20462;-57
2022/02/10 02:18:18;;;;;;;19.93;13.37;;;3.50;99.90;;;;;;5079334;28;20538;-57
2022/02/10 02:20:47;;;;;;;19.20;13.60;;;3.60;99.90;;;;;;5078573;28;20472;-57
2022/02/10 02:23:16;;;;;;;17.30;14.33;;;3.70;99.90;;;;;;5079795;28;20910;-57
2022/02/10 02:25:48;;;;;;;19.87;13.63;;;3.80;99.90;;;;;;5078580;28;20458;-52
2022/02/10 02:28:15;;;;;;;17.60;14.27;;;3.80;99.90;;;;;;5078954;28;20458;-57
2022/02/10 02:30:46;;;;;;;20.80;13.30;;;4.00;99.90;;;;;;5079228;28;20461;-58
2022/02/10 02:39:10;;;;;;;20.30;16.17;;;4.30;99.90;;;;;;5078303;28;20480;-56
2022/02/10 03:06:30;;;;;;;22.53;15.13;;;4.70;99.90;;;;;;5078169;28;20444;-55
2022/02/10 03:09:01;;;;;;;15.90;12.63;;;4.70;99.90;;;;;;5078055;28;20493;-55
2022/02/10 03:11:29;;;;;;;20.27;14.27;;;4.60;99.90;;;;;;5058880;28;20488;-58
2022/02/10 03:14:00;;;;;;;15.17;13.57;;;4.60;99.90;;;;;;5076513;28;20902;-58
2022/02/10 03:19:30;;;;;;;20.57;14.30;;;4.60;99.90;;;;;;5077596;28;20947;-53
2022/02/10 03:22:16;;;;;;;14.47;12.63;;;4.60;99.90;;;;;;5077970;28;20877;-56
2022/02/10 04:03:30;;;;;;;20.43;13.63;;;3.80;99.90;;;;;;5057960;28;20417;-58
2022/02/10 04:14:22;;;;;;;22.57;13.80;;;3.80;99.90;;;;;;5017719;28;20445;-58
2022/02/10 04:17:05;;;;;;;17.00;15.00;;;3.70;99.90;;;;;;5077956;28;20916;-55
2022/02/10 04:19:49;;;;;;;18.10;14.13;;;3.80;99.90;;;;;;5078020;28;20492;-56
2022/02/10 04:22:23;;;;;;;20.57;15.10;;;3.70;99.90;;;;;;5077343;28;20484;-58
2022/02/10 04:25:15;;;;;;;19.50;14.83;;;3.70;99.90;;;;;;5077923;28;20468;-58
2022/02/10 04:28:03;;;;;;;19.73;14.80;;;3.70;99.90;;;;;;5078088;28;20744;-58
2022/02/10 04:30:53;;;;;;;23.60;15.50;;;3.70;99.90;;;;;;5077714;28;20455;-56
2022/02/10 04:56:32;;;;;;;20.37;14.67;;;3.40;99.90;;;;;;5075947;28;20533;-58
2022/02/10 04:59:15;;;;;;;21.37;15.80;;;3.30;99.90;;;;;;5077462;28;20771;-58
2022/02/10 05:01:59;;;;;;;21.63;15.37;;;3.30;99.90;;;;;;5076954;28;20741;-57
2022/02/10 05:04:52;;;;;;;21.33;15.20;;;3.20;99.90;;;;;;5076377;28;20909;-55
2022/02/10 05:21:27;;;;;;;23.23;15.77;;;3.50;99.90;;;;;;5077686;28;20481;-58
2022/02/10 05:24:11;;;;;;;20.70;16.37;;;3.60;99.90;;;;;;5079443;28;20514;-54
2022/02/10 05:34:50;;;;;;;20.40;13.70;;;4.10;99.90;;;;;;5068517;28;20520;-56
2022/02/10 05:37:24;;;;;;;19.90;13.47;;;4.10;99.90;;;;;;5077734;28;20457;-59
2022/02/10 05:39:55;;;;;;;20.20;14.13;;;4.10;99.90;;;;;;5079134;28;20850;-59
2022/02/10 05:42:54;;;;;;;16.93;14.00;;;4.20;99.90;;;;;;5079483;28;20961;-55
2022/02/10 05:45:27;;;;;;;14.20;12.70;;;4.20;99.90;;;;;;5078561;28;20891;-59
2022/02/10 05:56:32;;;;;;;13.53;11.77;;;4.20;99.90;;;;;;5016531;28;20868;-59
2022/02/10 06:51:42;;;;;;;22.70;14.63;;;4.70;99.90;;;;;;5077075;28;20453;-61
2022/02/10 06:54:18;;;;;;;16.57;12.90;;;4.80;99.90;;;;;;5076203;28;20476;-61
2022/02/10 07:05:41;;;;;;;35.60;18.90;;;4.90;99.90;;;;;;5034627;28;20458;-61
2022/02/10 07:11:10;;;;;;;15.67;11.87;;;4.90;99.90;;;;;;5047582;28;20529;-61
2022/02/10 07:50:03;;;;;;;17.40;12.77;;;5.20;99.90;;;;;;5077653;28;20421;-61
2022/02/10 07:58:15;;;;;;;15.27;11.50;;;5.30;99.90;;;;;;5076150;28;20467;-61
2022/02/10 08:04:24;;;;;;;18.60;11.50;;;5.20;99.90;;;;;;5077269;28;20532;-61
2022/02/10 08:56:50;;;;;;;14.83;12.40;;;5.90;99.90;;;;;;5076187;28;20528;-61
2022/02/10 08:59:54;;;;;;;14.90;11.80;;;5.90;99.90;;;;;;5074944;28;20489;-61
2022/02/10 09:05:14;;;;;;;20.73;12.73;;;6.00;99.90;;;;;;5074846;28;20617;-61
2022/02/10 09:08:09;;;;;;;16.73;13.07;;;6.00;99.90;;;;;;5076697;28;20469;-61
2022/02/10 09:14:01;;;;;;;18.20;14.33;;;6.20;99.90;;;;;;5076269;28;20440;-61
2022/02/10 09:17:03;;;;;;;17.00;14.30;;;6.30;99.90;;;;;;5076085;28;20472;-61
2022/02/10 09:19:59;;;;;;;18.87;15.20;;;6.40;99.90;;;;;;5074229;28;20495;-61
2022/02/10 09:56:25;;;;;;;17.27;14.43;;;6.90;99.90;;;;;;5075390;28;20453;-60
2022/02/10 10:02:00;;;;;;;16.47;13.40;;;6.90;99.90;;;;;;5067207;28;20932;-61
2022/02/10 10:04:36;;;;;;;17.80;13.00;;;6.80;99.90;;;;;;5079686;28;20489;-61
2022/02/10 10:07:25;;;;;;;18.90;15.30;;;6.80;99.90;;;;;;5078007;28;20522;-62
2022/02/10 10:10:27;;;;;;;17.17;14.07;;;6.90;99.90;;;;;;5079787;28;20883;-62
2022/02/10 10:15:47;;;;;;;16.80;14.03;;;6.80;99.90;;;;;;5076314;28;20857;-61
2022/02/10 10:21:15;;;;;;;20.13;15.33;;;7.00;99.90;;;;;;5068193;28;20479;-60
2022/02/10 10:24:01;;;;;;;16.80;14.60;;;6.90;99.90;;;;;;5079513;28;20913;-61
2022/02/10 10:26:51;;;;;;;22.23;15.23;;;6.80;99.90;;;;;;5078483;28;20465;-60
2022/02/10 10:52:13;;;;;;;18.40;15.63;;;6.80;99.90;;;;;;5072935;28;20444;-60
2022/02/10 10:54:49;;;;;;;23.87;15.57;;;6.80;99.90;;;;;;5079159;28;20457;-60
2022/02/10 10:57:26;;;;;;;26.00;18.07;;;6.70;99.90;;;;;;5078474;28;20906;-60
2022/02/10 12:01:11;;;;;;;14.60;12.93;;;6.60;99.90;;;;;;5075557;28;20484;-61
2022/02/10 12:30:06;;;;;;;15.50;13.07;;;6.90;99.90;;;;;;5068903;28;20477;-59
2022/02/10 13:35:09;;;;;;;9.80;7.97;;;6.40;99.90;;;;;;5078087;28;20886;-61
2022/02/10 14:13:26;;;;;;;8.63;7.73;;;6.80;99.90;;;;;;5016857;28;20726;-60
2022/02/10 14:16:07;;;;;;;9.50;7.00;;;6.80;99.90;;;;;;5039392;28;20463;-60
2022/02/10 14:18:37;;;;;;;8.40;7.13;;;6.80;99.90;;;;;;5039499;28;20513;-61
2022/02/10 14:21:14;;;;;;;8.00;6.63;;;6.90;99.90;;;;;;5038828;28;20505;-61
2022/02/10 14:26:45;;;;;;;8.83;8.03;;;7.10;99.90;;;;;;5038475;28;20597;-61
2022/02/10 14:29:14;;;;;;;8.80;7.90;;;7.10;99.90;;;;;;5039700;28;20826;-60
2022/02/10 14:31:44;;;;;;;9.60;7.90;;;7.20;99.90;;;;;;5039695;28;20445;-60
2022/02/10 14:34:23;;;;;;;8.73;7.83;;;7.30;99.90;;;;;;5040024;28;20891;-59
2022/02/10 14:36:59;;;;;;;8.40;7.30;;;7.30;99.90;;;;;;5079067;28;20476;-59
2022/02/10 14:42:39;;;;;;;12.10;8.07;;;7.20;99.90;;;;;;5076425;28;21032;-59
2022/02/10 15:21:30;;;;;;;17.43;13.07;;;7.10;99.90;;;;;;5078154;28;20725;-61
2022/02/10 15:49:30;;;;;;;14.63;11.67;;;6.90;99.90;;;;;;5034957;28;20501;-60
2022/02/10 15:52:26;;;;;;;14.27;11.93;;;6.80;99.90;;;;;;5076645;28;20906;-61
2022/02/10 16:12:08;;;;;;;21.67;16.07;;;6.80;99.90;;;;;;5084168;28;20444;-60
2022/02/10 16:17:13;;;;;;;21.63;14.27;;;6.80;99.90;;;;;;5088318;28;20480;-58
2022/02/10 16:19:42;;;;;;;19.13;15.40;;;6.80;99.90;;;;;;5088940;28;20457;-60
2022/02/10 16:22:22;;;;;;;18.93;14.87;;;6.70;99.90;;;;;;5092309;28;20464;-56
2022/02/10 16:24:56;;;;;;;15.77;14.07;;;6.70;99.90;;;;;;5090927;28;20917;-60
2022/02/10 16:27:26;;;;;;;19.40;14.53;;;6.70;99.90;;;;;;5089633;28;20478;-60
2022/02/10 16:30:00;;;;;;;18.23;14.57;;;6.60;99.90;;;;;;5093113;28;20479;-61
2022/02/10 16:32:29;;;;;;;18.47;14.20;;;6.60;99.90;;;;;;5092922;28;20817;-58
2022/02/10 16:35:01;;;;;;;17.80;15.50;;;6.60;99.90;;;;;;5090323;28;20802;-57
2022/02/10 16:37:31;;;;;;;18.93;14.00;;;6.60;99.90;;;;;;5088574;28;20867;-56
2022/02/10 16:39:58;;;;;;;18.80;14.47;;;6.60;99.90;;;;;;5088040;28;20797;-60
2022/02/10 16:42:28;;;;;;;19.10;14.50;;;6.60;99.90;;;;;;5088784;28;20958;-61
2022/02/10 16:44:56;;;;;;;19.37;15.40;;;6.60;99.90;;;;;;5090114;28;20457;-58
2022/02/10 16:47:23;;;;;;;18.83;15.60;;;6.60;99.90;;;;;;5091201;28;20479;-60
2022/02/10 16:49:53;;;;;;;20.07;16.57;;;6.50;99.90;;;;;;5090099;28;20461;-60
2022/02/10 16:52:31;;;;;;;19.00;14.60;;;6.40;99.90;;;;;;5089267;28;20460;-61
2022/02/10 16:55:09;;;;;;;19.53;14.30;;;6.40;99.90;;;;;;5091814;28;20533;-61
2022/02/10 16:57:46;;;;;;;18.83;13.90;;;6.50;99.90;;;;;;5089356;28;20496;-59
2022/02/10 17:00:35;;;;;;;22.53;13.93;;;6.40;99.90;;;;;;5092593;28;20525;-60
2022/02/10 17:03:22;;;;;;;15.50;13.20;;;6.30;99.90;;;;;;5083819;28;20464;-58
2022/02/10 17:06:04;;;;;;;14.17;11.70;;;6.30;99.90;;;;;;5084915;28;20471;-58
2022/02/10 17:14:10;;;;;;;14.77;12.73;;;6.60;99.90;;;;;;5073654;28;20490;-60
2022/02/10 17:19:36;;;;;;;16.07;11.90;;;6.60;99.90;;;;;;5071152;28;20457;-58
2022/02/10 17:25:16;;;;;;;16.27;12.23;;;6.60;99.90;;;;;;5070991;28;20659;-58
2022/02/10 17:27:46;;;;;;;12.40;11.03;;;6.60;99.90;;;;;;5071644;28;20462;-57
2022/02/10 17:33:10;;;;;;;14.17;10.07;;;6.50;99.90;;;;;;5071825;28;20451;-57
2022/02/10 17:42:02;;;;;;;10.63;8.83;;;6.30;99.90;;;;;;5070447;28;20545;-59
2022/02/10 17:44:37;;;;;;;13.30;10.53;;;6.20;99.90;;;;;;5075965;28;20472;-60
2022/02/10 17:52:46;;;;;;;13.43;10.20;;;6.10;99.90;;;;;;5075518;28;20419;-61
2022/02/10 17:55:13;;;;;;;15.17;10.90;;;6.00;99.90;;;;;;5073213;28;20584;-61
2022/02/10 17:57:40;;;;;;;10.90;9.63;;;6.00;99.90;;;;;;5076275;28;20493;-60
2022/02/10 18:00:12;;;;;;;13.13;11.13;;;5.90;99.90;;;;;;5077034;28;20570;-61
2022/02/10 18:02:40;;;;;;;17.47;10.90;;;5.90;99.90;;;;;;5077038;28;20462;-61
2022/02/10 18:05:17;;;;;;;17.30;10.53;;;5.90;99.90;;;;;;5075700;28;20460;-62
2022/02/10 18:07:50;;;;;;;14.50;11.20;;;5.90;99.90;;;;;;5072111;28;20507;-61
2022/02/10 18:11:06;;;;;;;12.90;9.70;;;5.90;99.90;;;;;;5075907;28;20583;-61
2022/02/10 18:13:28;;;;;;;15.03;10.73;;;5.90;99.90;;;;;;5074680;28;20434;-60
2022/02/10 18:15:59;;;;;;;18.27;12.47;;;5.90;99.90;;;;;;5076444;28;20882;-61
2022/02/10 18:18:34;;;;;;;16.90;10.60;;;5.80;99.90;;;;;;5076646;28;20959;-60
2022/02/10 18:21:11;;;;;;;15.23;10.00;;;5.80;99.90;;;;;;5072226;28;20465;-60
2022/02/10 18:24:00;;;;;;;11.17;10.00;;;5.80;99.90;;;;;;5075296;28;20457;-62
2022/02/10 18:26:44;;;;;;;12.83;9.03;;;5.70;99.90;;;;;;5075048;28;20453;-62
2022/02/10 18:29:20;;;;;;;16.77;9.03;;;5.70;99.90;;;;;;5075707;28;20454;-60
2022/02/10 18:36:05;;;;;;;14.43;9.17;;;5.70;99.90;;;;;;5075988;28;20441;-61
2022/02/10 19:01:33;;;;;;;11.50;9.10;;;5.60;99.90;;;;;;5069938;28;20526;-61
2022/02/10 19:08:22;;;;;;;10.53;8.13;;;5.60;99.90;;;;;;5071788;28;20870;-58
2022/02/10 19:10:56;;;;;;;15.63;9.47;;;5.60;99.90;;;;;;5075782;28;20461;-59
2022/02/10 19:13:23;;;;;;;10.17;7.50;;;5.60;99.90;;;;;;5075769;28;20511;-61
2022/02/10 19:15:54;;;;;;;9.50;6.80;;;5.60;99.90;;;;;;5068434;28;20465;-59
2022/02/10 19:18:26;;;;;;;8.37;6.73;;;5.40;99.90;;;;;;5073624;28;20464;-61
2022/02/10 19:20:53;;;;;;;10.70;7.30;;;5.30;99.90;;;;;;5073633;28;20440;-61
2022/02/10 19:23:20;;;;;;;9.80;7.47;;;5.10;99.90;;;;;;5074379;28;20480;-59
2022/02/10 19:25:50;;;;;;;10.90;6.50;;;4.80;99.90;;;;;;5069472;28;20454;-59
2022/02/10 19:28:19;;;;;;;12.70;8.10;;;4.70;99.90;;;;;;5074005;28;20445;-61
2022/02/10 19:30:48;;;;;;;8.07;5.47;;;4.60;99.90;;;;;;5071342;28;20519;-60
2022/02/10 19:33:16;;;;;;;11.43;7.87;;;4.60;99.90;;;;;;5070371;28;20476;-61
2022/02/10 19:35:46;;;;;;;9.20;7.20;;;4.70;99.90;;;;;;5074302;28;20473;-59
2022/02/10 19:38:17;;;;;;;9.77;7.37;;;4.70;99.90;;;;;;5073476;28;20527;-60
2022/02/10 19:40:50;;;;;;;9.73;6.03;;;4.70;99.90;;;;;;5074894;28;20831;-60
2022/02/10 19:43:20;;;;;;;9.63;6.63;;;4.60;99.90;;;;;;5075270;28;20457;-62
2022/02/10 19:45:48;;;;;;;9.13;5.80;;;4.60;99.90;;;;;;5075272;28;20436;-61
2022/02/10 19:48:22;;;;;;;8.17;5.53;;;4.70;99.90;;;;;;5074627;28;20535;-60
2022/02/10 19:50:52;;;;;;;8.30;4.50;;;4.80;99.90;;;;;;5074129;28;20442;-61
2022/02/10 19:53:22;;;;;;;7.80;5.60;;;5.00;99.90;;;;;;5075974;28;20711;-60
2022/02/10 19:55:56;;;;;;;8.00;4.93;;;5.00;99.90;;;;;;5075063;28;20457;-58
2022/02/10 19:58:25;;;;;;;10.10;9.10;;;4.90;99.90;;;;;;5075419;28;20480;-59
2022/02/10 20:00:57;;;;;;;5.63;4.03;;;4.70;99.90;;;;;;5074938;28;20468;-61
2022/02/10 20:03:26;;;;;;;3.60;3.27;;;4.50;99.90;;;;;;5074307;28;20888;-61
2022/02/10 20:05:56;;;;;;;4.57;3.40;;;4.30;99.90;;;;;;5075066;28;20457;-61
2022/02/10 20:08:30;;;;;;;6.40;3.40;;;4.00;99.90;;;;;;5074641;28;20453;-61
2022/02/10 20:10:58;;;;;;;3.50;3.20;;;4.00;99.90;;;;;;5075084;28;20461;-58
2022/02/10 20:13:29;;;;;;;7.90;3.30;;;4.00;99.90;;;;;;5074982;28;20477;-61
2022/02/10 20:16:07;;;;;;;3.53;3.23;;;4.00;99.90;;;;;;5075254;28;20458;-60
2022/02/10 20:18:39;;;;;;;5.00;3.10;;;3.90;99.90;;;;;;5074125;28;20485;-59
2022/02/10 20:21:08;;;;;;;3.70;2.63;;;3.90;99.90;;;;;;5074427;28;20567;-59
2022/02/10 20:23:37;;;;;;;5.43;3.83;;;3.80;99.90;;;;;;5075004;28;20461;-61
2022/02/10 20:26:09;;;;;;;10.67;3.60;;;3.90;99.90;;;;;;5074814;28;20902;-59
2022/02/10 20:28:38;;;;;;;3.90;3.30;;;4.00;99.90;;;;;;5075302;28;20457;-61
2022/02/10 20:31:07;;;;;;;9.57;4.60;;;4.00;99.90;;;;;;5074582;28;20523;-61
2022/02/10 20:33:35;;;;;;;6.87;3.57;;;4.00;99.90;;;;;;5074376;28;20439;-62
2022/02/10 20:36:04;;;;;;;4.10;3.63;;;4.00;99.90;;;;;;5072234;28;20461;-61
2022/02/10 20:38:38;;;;;;;3.87;3.43;;;4.00;99.90;;;;;;5075172;28;20495;-61
2022/02/10 20:41:08;;;;;;;5.87;3.43;;;4.00;99.90;;;;;;5072371;28;20461;-59
2022/02/10 20:43:37;;;;;;;5.33;3.70;;;4.00;99.90;;;;;;5077178;28;20471;-60
2022/02/10 20:46:07;;;;;;;6.43;3.67;;;4.00;99.90;;;;;;5079874;28;20457;-59
2022/02/10 20:48:36;;;;;;;5.30;3.30;;;3.90;99.90;;;;;;5074352;28;20468;-61
2022/02/10 20:51:06;;;;;;;6.67;3.90;;;3.90;99.90;;;;;;5074494;28;20467;-60
2022/02/10 20:53:35;;;;;;;7.27;4.40;;;4.00;99.90;;;;;;5073292;28;20447;-61
2022/02/10 20:56:12;;;;;;;8.80;4.60;;;3.90;99.90;;;;;;5074168;28;20503;-62
2022/02/10 20:58:42;;;;;;;4.80;4.23;;;3.90;99.90;;;;;;5079918;28;20495;-59
2022/02/10 21:01:13;;;;;;;6.43;4.50;;;3.90;99.90;;;;;;5076353;28;20457;-60
2022/02/10 21:03:42;;;;;;;6.43;4.50;;;3.90;99.90;;;;;;5076696;28;20479;-61
2022/02/10 21:06:17;;;;;;;7.83;5.60;;;3.90;99.90;;;;;;5079412;28;20755;-61
2022/02/10 21:08:52;;;;;;;10.33;5.33;;;3.90;99.90;;;;;;5078971;28;20547;-59
2022/02/10 21:11:25;;;;;;;8.60;4.90;;;3.90;99.90;;;;;;5076884;28;20499;-59
2022/02/10 21:13:56;;;;;;;6.70;5.23;;;3.80;99.90;;;;;;5078460;28;20465;-59
2022/02/10 21:16:26;;;;;;;6.47;5.37;;;3.70;99.90;;;;;;5077214;28;20547;-61
2022/02/10 21:18:53;;;;;;;7.17;5.00;;;3.70;99.90;;;;;;5078718;28;20489;-61
2022/02/10 21:21:20;;;;;;;6.30;5.30;;;3.70;99.90;;;;;;5075875;28;20556;-61
2022/02/10 21:23:53;;;;;;;10.90;5.83;;;3.60;99.90;;;;;;5075320;28;20469;-61
2022/02/10 21:26:29;;;;;;;7.77;5.50;;;3.50;99.90;;;;;;5076507;28;20887;-60
2022/02/10 21:29:03;;;;;;;6.93;5.10;;;3.50;99.90;;;;;;5075898;28;20449;-60
2022/02/10 21:31:30;;;;;;;7.60;5.20;;;3.50;99.90;;;;;;5074853;28;20919;-62
2022/02/10 21:34:07;;;;;;;8.90;5.00;;;3.30;99.90;;;;;;5078678;28;20431;-59
2022/02/10 21:47:47;;;;;;;6.23;4.57;;;3.30;99.90;;;;;;5073069;28;20940;-62
2022/02/10 21:56:18;;;;;;;6.47;4.33;;;3.20;99.90;;;;;;5074820;28;21027;-62
2022/02/10 22:10:23;;;;;;;5.83;4.73;;;3.10;99.90;;;;;;5073515;28;20428;-62
2022/02/10 22:18:45;;;;;;;6.37;4.43;;;3.00;99.90;;;;;;5077108;28;20473;-62
2022/02/10 22:21:16;;;;;;;9.67;5.50;;;3.00;99.90;;;;;;5076947;28;20436;-62
2022/02/10 22:23:46;;;;;;;7.93;6.50;;;3.00;99.90;;;;;;5076565;28;20450;-62
2022/02/10 22:26:22;;;;;;;8.23;6.10;;;3.00;99.90;;;;;;5073008;28;20740;-62
2022/02/10 22:28:55;;;;;;;15.50;7.87;;;2.90;99.90;;;;;;5075220;28;20450;-62
2022/02/10 22:31:34;;;;;;;12.50;9.20;;;2.90;99.90;;;;;;5076691;28;20461;-62
2022/02/10 22:34:22;;;;;;;11.00;8.10;;;3.00;99.90;;;;;;5077435;28;20594;-62
2022/02/10 22:36:55;;;;;;;15.80;9.97;;;3.00;99.90;;;;;;5076333;28;20457;-62
2022/02/10 22:39:22;;;;;;;15.57;10.20;;;3.00;99.90;;;;;;5074872;28;21016;-63
2022/02/10 22:41:49;;;;;;;10.50;7.10;;;3.00;99.90;;;;;;5077454;28;20923;-62
2022/02/10 22:44:20;;;;;;;21.47;11.30;;;2.90;99.90;;;;;;5081870;28;20533;-63
2022/02/10 22:46:47;;;;;;;25.07;14.80;;;2.90;99.90;;;;;;5069155;28;20560;-63
2022/02/10 22:49:16;;;;;;;16.43;8.80;;;2.90;99.90;;;;;;5078025;28;20453;-63
2022/02/10 22:51:43;;;;;;;13.27;8.37;;;2.80;99.90;;;;;;5076232;28;20515;-63
2022/02/10 22:54:13;;;;;;;9.40;6.13;;;2.80;99.90;;;;;;5074779;28;20745;-63
2022/02/10 22:56:40;;;;;;;5.30;4.80;;;2.90;99.90;;;;;;5067816;28;20485;-62
2022/02/10 22:59:09;;;;;;;5.87;5.20;;;2.90;99.90;;;;;;5077195;28;21008;-63
2022/02/10 23:01:37;;;;;;;6.33;4.50;;;2.90;99.90;;;;;;5077027;28;20458;-63
2022/02/10 23:04:06;;;;;;;8.17;5.10;;;2.90;99.90;;;;;;5071414;28;20595;-63
2022/02/10 23:06:40;;;;;;;7.73;5.70;;;2.90;99.90;;;;;;5076035;28;20762;-63
2022/02/10 23:09:26;;;;;;;6.80;5.10;;;2.90;99.90;;;;;;5076301;28;20552;-62
2022/02/10 23:11:54;;;;;;;6.40;5.00;;;2.80;99.90;;;;;;5075008;28;20766;-62
2022/02/10 23:14:22;;;;;;;5.60;5.10;;;2.80;99.90;;;;;;5075101;28;20813;-62
2022/02/10 23:16:52;;;;;;;6.57;5.00;;;2.80;99.90;;;;;;5074680;28;20468;-62
2022/02/10 23:19:22;;;;;;;6.00;5.00;;;2.70;99.90;;;;;;5074895;28;20817;-63
2022/02/10 23:21:53;;;;;;;7.07;5.13;;;2.70;99.90;;;;;;5072353;28;20473;-62
2022/02/10 23:24:22;;;;;;;7.30;5.43;;;2.80;99.90;;;;;;5072589;28;20457;-59
2022/02/10 23:26:50;;;;;;;7.27;5.93;;;2.80;99.90;;;;;;5069044;28;20467;-61
2022/02/10 23:29:17;;;;;;;7.00;4.63;;;2.80;99.90;;;;;;5074932;28;20457;-62
2022/02/10 23:31:44;;;;;;;7.13;5.37;;;2.80;99.90;;;;;;5071519;28;20474;-61
2022/02/10 23:34:11;;;;;;;7.97;4.50;;;2.80;99.90;;;;;;5072501;28;20457;-60
2022/02/10 23:36:46;;;;;;;8.20;4.93;;;2.80;99.90;;;;;;5075162;28;20459;-61
2022/02/10 23:39:22;;;;;;;5.30;3.67;;;2.80;99.90;;;;;;5073498;28;20559;-61
2022/02/10 23:44:41;;;;;;;6.73;5.50;;;2.80;99.90;;;;;;5074220;28;20467;-62
2022/02/10 23:47:15;;;;;;;8.10;4.27;;;2.80;99.90;;;;;;5072024;28;20468;-62
2022/02/10 23:49:46;;;;;;;6.00;4.70;;;2.80;99.90;;;;;;5075137;28;20468;-62
2022/02/10 23:52:15;;;;;;;11.40;5.40;;;2.90;99.90;;;;;;5076035;28;20449;-62
2022/02/10 23:54:46;;;;;;;6.20;5.50;;;2.90;99.90;;;;;;5076297;28;20761;-62
2022/02/10 23:57:20;;;;;;;7.30;4.80;;;2.90;99.90;;;;;;5073711;28;20477;-62
